Time;durP1;ratioP1;P1;durP2;ratioP2;P2;SDS_P1;SDS_P2;PMS_P1;PMS_P2;Temp;Humidity;BMP_temperature;BMP_pressure;BME280_temperature;BME280_humidity;BME280_pressure;Samples;Min_cycle;Max_cycle;Signal;HPM_P1;HPM_P2
2023/06/17 00:06:01;;;;;;;6.05;4.13;;;;;;;18.59;37.24;100560.69;20929028;28;20632;-77
2023/06/17 00:16:06;;;;;;;4.72;4.07;;;;;;;17.79;38.82;100561.47;20910524;28;20237;-76
2023/06/17 00:26:08;;;;;;;5.68;4.60;;;;;;;18.15;37.81;100559.41;20894350;28;20226;-77
2023/06/17 00:36:11;;;;;;;8.35;5.15;;;;;;;17.95;38.55;100543.50;20910804;28;20215;-77
2023/06/17 00:46:27;;;;;;;8.15;4.50;;;;;;;18.16;37.42;100536.25;20925816;28;20493;-77
2023/06/17 00:56:31;;;;;;;5.97;3.92;;;;;;;17.95;38.18;100537.81;20924851;28;20261;-76
2023/06/17 01:07:16;;;;;;;7.18;4.00;;;;;;;17.36;39.18;100544.59;20888093;28;20227;-77
2023/06/17 01:17:18;;;;;;;4.68;4.20;;;;;;;17.15;40.41;100547.69;20898902;28;20929;-76
2023/06/17 01:27:23;;;;;;;4.10;3.47;;;;;;;16.93;41.47;100532.13;20900914;28;20222;-77
2023/06/17 01:37:29;;;;;;;3.83;3.53;;;;;;;17.45;39.76;100531.81;20931884;28;20720;-77
2023/06/17 01:47:32;;;;;;;4.50;3.13;;;;;;;16.81;40.74;100524.53;20965345;28;20200;-77
2023/06/17 01:57:35;;;;;;;6.18;2.92;;;;;;;16.90;39.87;100521.47;20920633;28;20212;-77
2023/06/17 02:07:38;;;;;;;6.95;4.03;;;;;;;16.52;41.67;100522.94;20951968;28;20507;-77
2023/06/17 02:17:42;;;;;;;5.47;4.38;;;;;;;16.42;41.38;100525.47;20975502;28;20203;-77
2023/06/17 02:27:45;;;;;;;5.53;4.30;;;;;;;16.41;41.92;100524.63;20952376;28;20580;-77
2023/06/17 02:37:47;;;;;;;4.45;3.80;;;;;;;15.83;43.62;100533.91;20925789;28;20234;-77
2023/06/17 02:47:50;;;;;;;5.25;3.90;;;;;;;16.02;43.59;100520.69;20957968;28;20192;-77
2023/06/17 02:57:53;;;;;;;5.05;4.55;;;;;;;15.36;44.85;100523.13;20936938;28;20223;-77
2023/06/17 03:07:56;;;;;;;5.72;4.47;;;;;;;16.00;43.08;100514.56;20897480;28;20285;-77
2023/06/17 03:17:59;;;;;;;5.70;4.27;;;;;;;15.43;44.73;100526.19;20934672;28;20285;-78
2023/06/17 03:28:02;;;;;;;5.40;4.33;;;;;;;15.96;43.24;100504.31;20897820;28;20253;-77
2023/06/17 03:38:05;;;;;;;4.72;4.03;;;;;;;15.41;44.73;100517.22;20914828;28;20265;-77
2023/06/17 03:48:08;;;;;;;5.80;4.67;;;;;;;15.29;45.02;100511.56;20931412;28;20183;-76
2023/06/17 03:58:14;;;;;;;6.22;4.45;;;;;;;15.71;44.18;100510.06;20931639;28;20215;-77
2023/06/17 04:08:18;;;;;;;4.90;4.40;;;;;;;15.63;44.42;100505.31;20914042;28;20228;-77
2023/06/17 04:18:21;;;;;;;5.47;4.78;;;;;;;15.32;45.56;100506.00;20940223;28;20211;-77
2023/06/17 04:28:24;;;;;;;6.43;4.88;;;;;;;15.71;44.81;100506.38;20888995;28;20493;-76
2023/06/17 04:38:27;;;;;;;7.38;4.70;;;;;;;16.02;44.11;100508.53;20926036;28;20219;-77
2023/06/17 04:48:29;;;;;;;7.93;5.40;;;;;;;16.29;44.29;100513.34;20936688;28;20196;-77
2023/06/17 04:58:33;;;;;;;8.70;4.90;;;;;;;16.60;42.78;100508.94;20958787;28;21829;-77
2023/06/17 05:08:48;;;;;;;12.40;5.63;;;;;;;16.77;42.65;100509.38;20928285;28;20241;-77
2023/06/17 05:18:50;;;;;;;6.20;5.00;;;;;;;16.82;43.71;100497.75;20927961;28;20293;-76
2023/06/17 05:28:53;;;;;;;8.43;4.93;;;;;;;17.10;42.58;100511.03;20921691;28;20217;-76
2023/06/17 05:38:56;;;;;;;7.65;5.65;;;;;;;17.56;39.50;100504.41;20927954;28;20212;-78
2023/06/17 05:48:58;;;;;;;8.95;5.68;;;;;;;17.90;38.94;100511.28;20894909;28;20723;-76
2023/06/17 05:59:01;;;;;;;6.50;5.85;;;;;;;18.24;38.11;100505.88;20955941;28;20208;-77
2023/06/17 06:09:09;;;;;;;7.88;5.40;;;;;;;18.55;37.88;100517.06;20923837;28;20640;-76
2023/06/17 06:19:11;;;;;;;7.55;5.22;;;;;;;18.51;37.79;100518.19;20927797;28;20298;-76
2023/06/17 06:29:14;;;;;;;10.55;7.03;;;;;;;18.90;37.39;100516.06;20916453;28;20227;-77
2023/06/17 06:39:18;;;;;;;7.60;5.20;;;;;;;18.51;37.60;100521.03;20920464;28;20272;-77
2023/06/17 06:49:21;;;;;;;7.05;5.00;;;;;;;19.07;37.46;100512.69;20887818;28;20328;-76
2023/06/17 06:59:24;;;;;;;10.43;6.90;;;;;;;19.00;37.36;100521.13;20935796;28;20520;-76
2023/06/17 07:09:27;;;;;;;6.35;5.18;;;;;;;18.78;37.71;100513.41;20881963;28;20251;-77
2023/06/17 07:19:30;;;;;;;7.65;4.95;;;;;;;20.40;33.06;100519.84;20893573;28;20247;-77
2023/06/17 07:29:33;;;;;;;6.55;5.05;;;;;;;20.31;33.68;100516.47;20928882;28;20249;-76
2023/06/17 07:39:35;;;;;;;10.20;4.88;;;;;;;20.84;32.90;100510.50;20894195;28;20305;-76
2023/06/17 07:49:38;;;;;;;5.05;4.03;;;;;;;20.28;31.89;100512.38;20917589;28;20188;-79
2023/06/17 07:59:41;;;;;;;7.25;4.07;;;;;;;20.91;31.19;100504.88;20893155;28;20251;-77
2023/06/17 08:09:43;;;;;;;4.50;3.92;;;;;;;22.29;27.82;100499.16;20920983;28;20297;-78
2023/06/17 08:19:46;;;;;;;5.50;3.83;;;;;;;22.33;28.53;100502.84;20876928;28;20244;-78
2023/06/17 08:29:48;;;;;;;4.47;3.78;;;;;;;21.81;27.21;100489.97;20869200;28;20200;-77
2023/06/17 08:39:50;;;;;;;4.82;3.72;;;;;;;21.75;27.16;100492.34;20901893;28;20212;-78
2023/06/17 08:49:56;;;;;;;6.50;4.25;;;;;;;22.81;25.96;100474.66;20889415;28;20204;-77
2023/06/17 08:59:58;;;;;;;4.68;4.28;;;;;;;23.02;25.13;100476.72;20873126;28;20247;-80
2023/06/17 09:10:05;;;;;;;6.47;4.80;;;;;;;22.52;25.85;100467.25;20887652;28;20682;-79
2023/06/17 09:20:12;;;;;;;3.50;3.20;;;;;;;23.18;24.67;100466.47;20914333;28;20521;-79
2023/06/17 09:30:15;;;;;;;4.30;3.33;;;;;;;23.26;23.79;100461.53;20923676;28;20200;-77
2023/06/17 09:40:18;;;;;;;4.93;2.83;;;;;;;23.85;22.50;100465.50;20896529;28;20251;-76
2023/06/17 09:50:22;;;;;;;8.50;4.95;;;;;;;23.62;22.79;100464.34;20949293;28;20248;-81
2023/06/17 10:00:26;;;;;;;2.97;2.45;;;;;;;24.44;22.09;100453.25;20929148;28;20215;-80
2023/06/17 10:10:29;;;;;;;3.47;3.10;;;;;;;24.22;23.22;100447.66;20897688;28;20535;-84
2023/06/17 10:20:32;;;;;;;5.40;2.53;;;;;;;24.42;20.40;100450.00;20963610;28;20215;-83
2023/06/17 10:30:35;;;;;;;5.47;2.50;;;;;;;25.10;20.37;100442.44;20919039;28;20245;-79
2023/06/17 10:40:47;;;;;;;3.00;2.70;;;;;;;24.75;21.64;100449.34;20947287;28;20219;-78
2023/06/17 10:51:18;;;;;;;4.10;2.63;;;;;;;24.98;20.57;100433.53;20912553;28;20238;-78
2023/06/17 11:01:20;;;;;;;7.53;2.70;;;;;;;26.15;19.00;100427.22;20906812;28;20239;-78
2023/06/17 11:11:23;;;;;;;4.15;2.97;;;;;;;25.81;19.08;100423.59;20911453;28;20305;-76
2023/06/17 11:21:25;;;;;;;2.60;2.40;;;;;;;25.42;18.95;100419.09;20904264;28;20243;-78
2023/06/17 11:31:28;;;;;;;3.33;2.80;;;;;;;25.31;19.37;100406.88;20896105;28;20204;-78
2023/06/17 11:41:31;;;;;;;6.80;2.60;;;;;;;26.30;18.93;100399.00;20944930;28;20248;-79
2023/06/17 11:51:34;;;;;;;2.47;2.28;;;;;;;26.81;18.31;100383.34;20930576;28;20192;-80
2023/06/17 12:01:37;;;;;;;3.20;2.60;;;;;;;26.55;18.47;100375.53;20890320;28;20231;-78
2023/06/17 12:11:39;;;;;;;2.50;2.30;;;;;;;26.33;17.43;100378.75;20893196;28;20255;-80
2023/06/17 12:21:43;;;;;;;3.28;2.45;;;;;;;27.28;16.85;100363.88;20903881;28;20273;-76
2023/06/17 12:31:47;;;;;;;3.55;2.70;;;;;;;27.01;18.55;100360.28;20888009;28;20648;-77
2023/06/17 12:41:50;;;;;;;3.97;2.80;;;;;;;26.41;16.91;100352.66;20894666;28;20314;-77
2023/06/17 12:51:52;;;;;;;3.35;2.60;;;;;;;28.10;16.32;100336.88;20890703;28;20200;-77
2023/06/17 13:01:54;;;;;;;3.92;2.80;;;;;;;28.22;16.95;100332.47;20894151;28;20529;-77
2023/06/17 13:11:57;;;;;;;3.15;2.78;;;;;;;27.60;17.00;100325.63;20914083;28;20274;-76
2023/06/17 13:21:59;;;;;;;5.10;3.25;;;;;;;27.81;17.76;100314.84;20896337;28;20652;-82
2023/06/17 13:32:01;;;;;;;4.45;3.38;;;;;;;27.90;17.17;100321.69;20906378;28;20242;-78
2023/06/17 13:42:04;;;;;;;3.60;3.30;;;;;;;27.67;18.27;100308.09;20945071;28;20245;-77
2023/06/17 13:52:08;;;;;;;15.85;12.77;;;;;;;28.51;17.66;100282.56;20914823;28;20256;-71
2023/06/17 14:02:10;;;;;;;4.80;3.67;;;;;;;28.14;18.73;100284.72;20903283;28;20286;-76
2023/06/17 14:12:12;;;;;;;7.13;3.63;;;;;;;28.17;17.70;100280.94;20899258;28;20685;-74
2023/06/17 14:22:15;;;;;;;5.15;3.70;;;;;;;28.21;17.82;100272.13;20889293;28;20239;-77
2023/06/17 14:32:17;;;;;;;4.03;3.45;;;;;;;28.25;17.56;100279.47;20888008;28;20742;-80
2023/06/17 14:42:19;;;;;;;4.35;3.70;;;;;;;28.01;17.61;100263.56;20906861;28;20243;-74
2023/06/17 14:52:22;;;;;;;5.55;3.78;;;;;;;28.54;18.62;100262.19;20886911;28;20307;-74
2023/06/17 15:02:44;;;;;;;4.10;3.70;;;;;;;28.63;17.90;100258.66;20903105;28;20285;-78
2023/06/17 15:12:47;;;;;;;7.03;5.38;;;;;;;28.14;18.85;100261.56;20904980;28;20247;-75
2023/06/17 15:22:50;;;;;;;4.40;4.00;;;;;;;27.65;18.79;100249.94;20879784;28;20235;-75
2023/06/17 15:32:52;;;;;;;4.22;3.80;;;;;;;27.91;20.51;100245.22;20877234;28;20286;-74
2023/06/17 15:42:54;;;;;;;5.88;4.63;;;;;;;28.14;18.80;100243.41;20891745;28;20300;-73
2023/06/17 15:52:57;;;;;;;7.35;5.07;;;;;;;27.75;20.50;100245.97;20904571;28;20248;-77
2023/06/17 16:02:59;;;;;;;5.63;3.95;;;;;;;28.24;19.59;100228.66;20884200;28;20247;-74
2023/06/17 16:13:01;;;;;;;4.78;4.03;;;;;;;27.92;19.14;100234.47;20900987;28;20239;-73
2023/06/17 16:23:03;;;;;;;9.00;4.57;;;;;;;28.15;19.71;100216.09;20900355;28;20545;-78
2023/06/17 16:33:07;;;;;;;4.75;4.20;;;;;;;28.13;19.94;100219.44;20899309;28;20215;-77
2023/06/17 16:43:09;;;;;;;6.28;4.30;;;;;;;27.19;20.00;100230.72;20897495;28;20227;-77
2023/06/17 16:53:16;;;;;;;6.18;3.72;;;;;;;27.23;19.52;100230.66;20894321;28;20203;-79
2023/06/17 17:03:18;;;;;;;4.03;3.70;;;;;;;27.59;19.99;100222.81;20911719;28;20746;-78
2023/06/17 17:13:22;;;;;;;4.85;3.85;;;;;;;27.04;19.93;100226.50;20907721;28;20309;-76
2023/06/17 17:23:26;;;;;;;4.30;3.90;;;;;;;27.45;20.03;100225.22;20899885;28;20317;-77
2023/06/17 17:33:28;;;;;;;7.57;4.97;;;;;;;27.57;20.25;100236.09;20902414;28;20239;-77
2023/06/17 17:43:31;;;;;;;6.05;4.43;;;;;;;27.43;20.58;100240.13;20909987;28;20258;-78
2023/06/17 17:53:33;;;;;;;4.55;3.88;;;;;;;26.74;20.50;100250.63;20909057;28;20216;-74
2023/06/17 18:03:35;;;;;;;5.63;4.13;;;;;;;27.35;21.06;100238.66;20906893;28;20584;-74
2023/06/17 18:13:38;;;;;;;4.97;4.07;;;;;;;27.15;22.04;100241.53;20896978;28;20714;-74
2023/06/17 18:23:40;;;;;;;4.32;3.92;;;;;;;27.05;20.77;100236.81;20891192;28;20317;-76
2023/06/17 18:33:42;;;;;;;5.30;4.30;;;;;;;26.46;22.18;100239.63;20886183;28;20312;-78
2023/06/17 18:43:45;;;;;;;6.90;4.25;;;;;;;26.42;23.08;100239.69;20891416;28;20270;-75
2023/06/17 18:53:51;;;;;;;4.70;3.90;;;;;;;26.20;24.04;100256.56;20909413;28;20218;-73
2023/06/17 19:04:03;;;;;;;4.53;4.13;;;;;;;25.82;24.90;100252.25;20898625;28;20297;-78
2023/06/17 19:14:20;;;;;;;7.93;4.35;;;;;;;25.35;25.07;100257.03;20906703;28;20247;-74
2023/06/17 19:24:29;;;;;;;4.97;4.40;;;;;;;25.16;25.22;100267.16;20906841;28;20215;-75
2023/06/17 19:34:37;;;;;;;6.95;4.90;;;;;;;24.65;25.69;100271.88;20921067;28;20286;-75
2023/06/17 19:44:42;;;;;;;10.90;5.38;;;;;;;24.98;25.69;100283.81;20848896;28;20627;-75
2023/06/17 19:54:45;;;;;;;6.13;5.13;;;;;;;23.94;27.88;100288.88;20847722;28;20278;-74
2023/06/17 20:04:48;;;;;;;9.18;5.65;;;;;;;23.73;28.37;100299.28;20907898;28;20239;-75
2023/06/17 20:14:50;;;;;;;7.95;6.43;;;;;;;23.83;28.09;100294.69;20866565;28;20240;-74
2023/06/17 20:24:53;;;;;;;11.82;9.60;;;;;;;23.39;29.65;100301.91;20866364;28;20309;-75
2023/06/17 20:34:58;;;;;;;9.80;8.70;;;;;;;23.21;30.80;100295.44;20900447;28;20212;-74
2023/06/17 20:45:01;;;;;;;10.73;8.07;;;;;;;22.89;30.97;100298.38;20898994;28;20243;-74
2023/06/17 20:55:03;;;;;;;10.30;9.20;;;;;;;22.93;31.49;100299.19;20895736;28;20624;-74
2023/06/17 21:05:07;;;;;;;12.55;8.57;;;;;;;22.82;32.28;100299.25;20906585;28;20757;-74
2023/06/17 21:15:10;;;;;;;9.15;7.55;;;;;;;22.78;32.00;100289.81;20920811;28;20223;-74
2023/06/17 21:25:12;;;;;;;12.02;7.47;;;;;;;22.12;33.32;100298.06;20937460;28;20293;-77
2023/06/17 21:35:16;;;;;;;10.52;7.22;;;;;;;21.94;32.41;100297.25;20887585;28;20349;-75
2023/06/17 21:45:20;;;;;;;7.90;6.80;;;;;;;21.73;33.46;100300.84;20879405;28;20316;-75
2023/06/17 21:55:22;;;;;;;9.50;7.05;;;;;;;22.04;33.56;100293.56;20929221;28;20199;-75
2023/06/17 22:05:25;;;;;;;8.93;7.05;;;;;;;21.14;34.45;100290.00;20931958;28;20251;-74
2023/06/17 22:15:27;;;;;;;10.60;6.60;;;;;;;21.67;34.72;100295.94;20935028;28;20196;-75
2023/06/17 22:25:29;;;;;;;7.82;7.05;;;;;;;21.14;35.35;100287.97;20939899;28;20624;-75
2023/06/17 22:35:32;;;;;;;8.57;6.90;;;;;;;21.21;35.10;100290.06;20903900;28;20232;-76
2023/06/17 22:45:34;;;;;;;11.38;7.40;;;;;;;21.07;35.53;100296.50;20901686;28;20228;-76
2023/06/17 22:55:37;;;;;;;10.77;9.18;;;;;;;20.65;35.67;100306.47;20906663;28;20268;-74
2023/06/17 23:05:39;;;;;;;12.00;9.07;;;;;;;20.01;37.44;100297.38;20899979;28;20278;-74
2023/06/17 23:15:47;;;;;;;11.57;9.38;;;;;;;20.00;37.19;100294.97;20924541;28;20188;-78
2023/06/17 23:26:27;;;;;;;11.80;9.07;;;;;;;20.20;37.42;100295.53;20908584;28;20231;-78
2023/06/17 23:37:02;;;;;;;10.27;9.25;;;;;;;20.01;38.29;100303.09;20893964;28;20243;-73
2023/06/17 23:47:07;;;;;;;12.00;9.25;;;;;;;20.17;37.92;100302.03;20938710;28;20249;-73
2023/06/17 23:57:09;;;;;;;12.50;9.20;;;;;;;20.08;38.19;100293.78;20886535;28;20208;-73
